sensor_id;sensor_type;location;lat;lon;timestamp;pressure;altitude;pressure_sealevel;temperature;humidity
11888;BME280;6003;42.756;23.130;2023-04-12T00:01:30;154235.03;;;7.09;97.50
11888;BME280;6003;42.756;23.130;2023-04-12T00:03:57;154229.75;;;7.07;96.80
11888;BME280;6003;42.756;23.130;2023-04-12T00:06:24;154229.75;;;7.07;97.02
11888;BME280;6003;42.756;23.130;2023-04-12T00:08:57;154241.66;;;7.12;96.76
11888;BME280;6003;42.756;23.130;2023-04-12T00:11:40;154260.06;;;7.19;96.03
11888;BME280;6003;42.756;23.130;2023-04-12T00:14:07;154264.06;;;7.20;96.21
11888;BME280;6003;42.756;23.130;2023-04-12T00:16:36;154262.75;;;7.20;96.07
11888;BME280;6003;42.756;23.130;2023-04-12T00:19:03;154256.16;;;7.17;96.31
11888;BME280;6003;42.756;23.130;2023-04-12T00:21:31;154237.66;;;7.10;95.99
11888;BME280;6003;42.756;23.130;2023-04-12T00:23:57;154240.34;;;7.11;96.36
11888;BME280;6003;42.756;23.130;2023-04-12T00:26:24;154258.75;;;7.18;96.04
11888;BME280;6003;42.756;23.130;2023-04-12T00:28:51;154271.97;;;7.23;96.20
11888;BME280;6003;42.756;23.130;2023-04-12T00:31:18;154253.53;;;7.16;96.05
11888;BME280;6003;42.756;23.130;2023-04-12T00:33:46;154240.34;;;7.11;96.11
11888;BME280;6003;42.756;23.130;2023-04-12T00:36:13;154244.25;;;7.13;96.14
11888;BME280;6003;42.756;23.130;2023-04-12T00:38:40;154277.25;;;7.26;96.17
11888;BME280;6003;42.756;23.130;2023-04-12T00:41:07;154275.94;;;7.25;95.95
11888;BME280;6003;42.756;23.130;2023-04-12T00:43:34;154271.97;;;7.23;95.74
11888;BME280;6003;42.756;23.130;2023-04-12T00:46:01;154266.66;;;7.21;95.50
11888;BME280;6003;42.756;23.130;2023-04-12T00:48:28;154256.16;;;7.17;96.84
11888;BME280;6003;42.756;23.130;2023-04-12T00:50:56;154275.94;;;7.25;95.60
11888;BME280;6003;42.756;23.130;2023-04-12T00:53:23;154258.75;;;7.18;96.27
11888;BME280;6003;42.756;23.130;2023-04-12T00:55:50;154256.16;;;7.17;96.24
11888;BME280;6003;42.756;23.130;2023-04-12T00:58:17;154257.44;;;7.18;97.03
11888;BME280;6003;42.756;23.130;2023-04-12T01:00:45;154253.53;;;7.16;96.78
11888;BME280;6003;42.756;23.130;2023-04-12T01:03:18;154254.84;;;7.17;96.93
11888;BME280;6003;42.756;23.130;2023-04-12T01:05:51;154261.44;;;7.19;95.80
11888;BME280;6003;42.756;23.130;2023-04-12T01:08:27;154264.06;;;7.20;96.32
11888;BME280;6003;42.756;23.130;2023-04-12T01:11:04;154261.44;;;7.19;96.44
11888;BME280;6003;42.756;23.130;2023-04-12T01:13:34;154266.66;;;7.21;96.28
11888;BME280;6003;42.756;23.130;2023-04-12T01:16:08;154273.25;;;7.24;96.24
11888;BME280;6003;42.756;23.130;2023-04-12T01:18:40;154281.16;;;7.27;96.65
11888;BME280;6003;42.756;23.130;2023-04-12T01:21:15;154264.06;;;7.20;96.15
11888;BME280;6003;42.756;23.130;2023-04-12T01:23:52;154256.16;;;7.17;97.16
11888;BME280;6003;42.756;23.130;2023-04-12T01:26:30;154274.56;;;7.24;95.71
11888;BME280;6003;42.756;23.130;2023-04-12T01:29:07;154266.66;;;7.21;95.93
11888;BME280;6003;42.756;23.130;2023-04-12T01:31:35;154245.56;;;7.13;96.39
11888;BME280;6003;42.756;23.130;2023-04-12T01:34:07;154253.53;;;7.16;97.03
11888;BME280;6003;42.756;23.130;2023-04-12T01:36:36;154235.03;;;7.09;97.25
11888;BME280;6003;42.756;23.130;2023-04-12T01:39:04;154242.94;;;7.12;96.70
11888;BME280;6003;42.756;23.130;2023-04-12T01:41:39;154217.94;;;7.03;97.89
11888;BME280;6003;42.756;23.130;2023-04-12T01:44:12;154224.53;;;7.05;97.46
11888;BME280;6003;42.756;23.130;2023-04-12T01:46:40;154232.44;;;7.08;97.27
11888;BME280;6003;42.756;23.130;2023-04-12T01:49:08;154225.81;;;7.06;97.70
11888;BME280;6003;42.756;23.130;2023-04-12T01:51:43;154232.44;;;7.08;96.25
11888;BME280;6003;42.756;23.130;2023-04-12T01:54:17;154240.34;;;7.11;97.76
11888;BME280;6003;42.756;23.130;2023-04-12T01:56:46;154228.44;;;7.07;97.03
11888;BME280;6003;42.756;23.130;2023-04-12T01:59:17;154235.03;;;7.09;97.94
11888;BME280;6003;42.756;23.130;2023-04-12T02:01:45;154216.63;;;7.02;97.04
11888;BME280;6003;42.756;23.130;2023-04-12T02:04:13;154221.84;;;7.04;97.29
11888;BME280;6003;42.756;23.130;2023-04-12T02:06:42;154212.63;;;7.00;97.34
11888;BME280;6003;42.756;23.130;2023-04-12T02:09:10;154235.03;;;7.09;97.08
11888;BME280;6003;42.756;23.130;2023-04-12T02:11:37;154206.03;;;6.98;97.29
11888;BME280;6003;42.756;23.130;2023-04-12T02:14:04;154188.94;;;6.91;98.49
11888;BME280;6003;42.756;23.130;2023-04-12T02:16:33;154184.94;;;6.90;98.44
11888;BME280;6003;42.756;23.130;2023-04-12T02:19:00;154184.94;;;6.90;98.57
11888;BME280;6003;42.756;23.130;2023-04-12T02:21:27;154187.63;;;6.91;98.71
11888;BME280;6003;42.756;23.130;2023-04-12T02:23:53;154211.34;;;7.00;97.81
11888;BME280;6003;42.756;23.130;2023-04-12T02:26:20;154210.03;;;6.99;97.84
11888;BME280;6003;42.756;23.130;2023-04-12T02:28:47;154236.34;;;7.10;98.70
11888;BME280;6003;42.756;23.130;2023-04-12T02:31:14;154242.94;;;7.12;98.35
11888;BME280;6003;42.756;23.130;2023-04-12T02:33:42;154250.84;;;7.15;98.08
11888;BME280;6003;42.756;23.130;2023-04-12T02:36:10;154282.47;;;7.28;98.63
11888;BME280;6003;42.756;23.130;2023-04-12T02:38:37;154282.47;;;7.28;99.63
11888;BME280;6003;42.756;23.130;2023-04-12T02:41:04;154303.59;;;7.36;100.00
11888;BME280;6003;42.756;23.130;2023-04-12T02:43:31;154295.69;;;7.33;100.00
11888;BME280;6003;42.756;23.130;2023-04-12T02:45:58;154319.41;;;7.42;100.00
11888;BME280;6003;42.756;23.130;2023-04-12T02:48:25;154316.78;;;7.41;100.00
11888;BME280;6003;42.756;23.130;2023-04-12T02:50:53;154329.97;;;7.46;100.00
11888;BME280;6003;42.756;23.130;2023-04-12T02:53:20;154316.78;;;7.41;100.00
11888;BME280;6003;42.756;23.130;2023-04-12T02:55:47;154329.97;;;7.46;100.00
11888;BME280;6003;42.756;23.130;2023-04-12T02:58:14;154318.09;;;7.41;100.00
11888;BME280;6003;42.756;23.130;2023-04-12T03:00:40;154298.34;;;7.34;100.00
11888;BME280;6003;42.756;23.130;2023-04-12T03:03:08;154311.50;;;7.39;100.00
11888;BME280;6003;42.756;23.130;2023-04-12T03:05:35;154298.34;;;7.34;100.00
11888;BME280;6003;42.756;23.130;2023-04-12T03:08:04;154287.78;;;7.30;100.00
11888;BME280;6003;42.756;23.130;2023-04-12T03:10:31;154290.38;;;7.31;100.00
11888;BME280;6003;42.756;23.130;2023-04-12T03:12:57;154294.38;;;7.32;100.00
11888;BME280;6003;42.756;23.130;2023-04-12T03:15:24;154295.69;;;7.33;100.00
11888;BME280;6003;42.756;23.130;2023-04-12T03:17:52;154295.69;;;7.33;100.00
11888;BME280;6003;42.756;23.130;2023-04-12T03:20:19;154290.38;;;7.31;100.00
11888;BME280;6003;42.756;23.130;2023-04-12T03:22:49;154287.78;;;7.30;100.00
11888;BME280;6003;42.756;23.130;2023-04-12T03:25:17;154271.97;;;7.23;100.00
11888;BME280;6003;42.756;23.130;2023-04-12T03:27:44;154266.66;;;7.21;100.00
11888;BME280;6003;42.756;23.130;2023-04-12T03:30:11;154266.66;;;7.21;100.00
11888;BME280;6003;42.756;23.130;2023-04-12T03:32:39;154273.25;;;7.24;100.00
11888;BME280;6003;42.756;23.130;2023-04-12T03:35:06;154261.44;;;7.19;100.00
11888;BME280;6003;42.756;23.130;2023-04-12T03:37:33;154250.84;;;7.15;100.00
11888;BME280;6003;42.756;23.130;2023-04-12T03:40:00;154245.56;;;7.13;100.00
11888;BME280;6003;42.756;23.130;2023-04-12T03:42:29;154252.16;;;7.16;100.00
11888;BME280;6003;42.756;23.130;2023-04-12T03:44:55;154248.22;;;7.14;100.00
11888;BME280;6003;42.756;23.130;2023-04-12T03:47:22;154245.56;;;7.13;100.00
11888;BME280;6003;42.756;23.130;2023-04-12T03:49:49;154249.53;;;7.15;100.00
11888;BME280;6003;42.756;23.130;2023-04-12T03:52:19;154257.44;;;7.18;100.00
11888;BME280;6003;42.756;23.130;2023-04-12T03:54:46;154241.66;;;7.12;100.00
11888;BME280;6003;42.756;23.130;2023-04-12T03:57:12;154248.22;;;7.14;100.00
11888;BME280;6003;42.756;23.130;2023-04-12T03:59:41;154256.16;;;7.17;100.00
11888;BME280;6003;42.756;23.130;2023-04-12T04:02:08;154249.53;;;7.15;100.00
11888;BME280;6003;42.756;23.130;2023-04-12T04:04:35;154253.53;;;7.16;100.00
11888;BME280;6003;42.756;23.130;2023-04-12T04:07:03;154248.22;;;7.14;100.00
11888;BME280;6003;42.756;23.130;2023-04-12T04:09:30;154260.06;;;7.19;100.00
11888;BME280;6003;42.756;23.130;2023-04-12T04:12:08;154258.75;;;7.18;100.00
11888;BME280;6003;42.756;23.130;2023-04-12T04:14:35;154264.06;;;7.20;100.00
11888;BME280;6003;42.756;23.130;2023-04-12T04:17:03;154265.34;;;7.21;100.00
11888;BME280;6003;42.756;23.130;2023-04-12T04:19:30;154253.53;;;7.16;100.00
11888;BME280;6003;42.756;23.130;2023-04-12T04:21:56;154250.84;;;7.15;100.00
11888;BME280;6003;42.756;23.130;2023-04-12T04:24:26;154248.22;;;7.14;99.88
11888;BME280;6003;42.756;23.130;2023-04-12T04:26:53;154249.53;;;7.15;100.00
11888;BME280;6003;42.756;23.130;2023-04-12T04:29:20;154242.94;;;7.12;99.44
11888;BME280;6003;42.756;23.130;2023-04-12T04:31:47;154253.53;;;7.16;98.29
11888;BME280;6003;42.756;23.130;2023-04-12T04:34:16;154250.84;;;7.15;98.39
11888;BME280;6003;42.756;23.130;2023-04-12T04:36:43;154253.53;;;7.16;98.56
11888;BME280;6003;42.756;23.130;2023-04-12T04:39:11;154261.44;;;7.19;98.17
11888;BME280;6003;42.756;23.130;2023-04-12T04:41:37;154261.44;;;7.19;98.46
11888;BME280;6003;42.756;23.130;2023-04-12T04:44:05;154264.06;;;7.20;97.47
11888;BME280;6003;42.756;23.130;2023-04-12T04:46:34;154285.16;;;7.29;97.68
11888;BME280;6003;42.756;23.130;2023-04-12T04:49:02;154277.25;;;7.26;98.29
11888;BME280;6003;42.756;23.130;2023-04-12T04:51:31;154290.38;;;7.31;97.13
11888;BME280;6003;42.756;23.130;2023-04-12T04:53:58;154290.38;;;7.31;96.41
11888;BME280;6003;42.756;23.130;2023-04-12T04:56:24;154295.69;;;7.33;96.08
11888;BME280;6003;42.756;23.130;2023-04-12T04:58:51;154300.97;;;7.35;95.70
11888;BME280;6003;42.756;23.130;2023-04-12T05:01:18;154314.16;;;7.40;93.72
11888;BME280;6003;42.756;23.130;2023-04-12T05:03:45;154335.25;;;7.48;93.15
11888;BME280;6003;42.756;23.130;2023-04-12T05:06:14;154327.31;;;7.45;92.00
11888;BME280;6003;42.756;23.130;2023-04-12T05:08:42;154340.50;;;7.50;92.00
11888;BME280;6003;42.756;23.130;2023-04-12T05:11:09;154372.19;;;7.62;91.78
11888;BME280;6003;42.756;23.130;2023-04-12T05:13:36;154385.34;;;7.67;91.00
11888;BME280;6003;42.756;23.130;2023-04-12T05:16:05;154374.81;;;7.63;90.80
11888;BME280;6003;42.756;23.130;2023-04-12T05:18:32;154378.72;;;7.65;89.97
11888;BME280;6003;42.756;23.130;2023-04-12T05:21:01;154391.94;;;7.70;88.94
11888;BME280;6003;42.756;23.130;2023-04-12T05:23:28;154390.63;;;7.69;87.74
11888;BME280;6003;42.756;23.130;2023-04-12T05:25:57;154388.00;;;7.68;87.17
11888;BME280;6003;42.756;23.130;2023-04-12T05:28:23;154374.81;;;7.63;87.09
11888;BME280;6003;42.756;23.130;2023-04-12T05:30:50;154373.50;;;7.63;87.30
11888;BME280;6003;42.756;23.130;2023-04-12T05:33:17;154378.72;;;7.65;86.20
11888;BME280;6003;42.756;23.130;2023-04-12T05:35:44;154405.13;;;7.75;86.02
11888;BME280;6003;42.756;23.130;2023-04-12T05:38:10;154460.50;;;7.97;86.97
11888;BME280;6003;42.756;23.130;2023-04-12T05:40:37;154496.13;;;8.10;86.56
11888;BME280;6003;42.756;23.130;2023-04-12T05:43:06;154527.78;;;8.23;87.55
11888;BME280;6003;42.756;23.130;2023-04-12T05:45:36;154600.41;;;8.51;85.22
11888;BME280;6003;42.756;23.130;2023-04-12T05:48:04;154675.63;;;8.80;83.81
11888;BME280;6003;42.756;23.130;2023-04-12T05:50:31;154696.75;;;8.88;83.74
11888;BME280;6003;42.756;23.130;2023-04-12T05:52:59;154641.34;;;8.67;83.75
11888;BME280;6003;42.756;23.130;2023-04-12T05:55:26;154665.09;;;8.76;85.27
11888;BME280;6003;42.756;23.130;2023-04-12T05:57:53;154673.00;;;8.79;85.26
11888;BME280;6003;42.756;23.130;2023-04-12T06:00:21;154642.66;;;8.67;84.95
11888;BME280;6003;42.756;23.130;2023-04-12T06:02:48;154641.34;;;8.67;84.87
11888;BME280;6003;42.756;23.130;2023-04-12T06:05:16;154608.31;;;8.54;84.13
11888;BME280;6003;42.756;23.130;2023-04-12T06:07:43;154601.72;;;8.51;84.60
11888;BME280;6003;42.756;23.130;2023-04-12T06:10:13;154567.38;;;8.38;84.86
11888;BME280;6003;42.756;23.130;2023-04-12T06:12:40;154548.91;;;8.31;85.15
11888;BME280;6003;42.756;23.130;2023-04-12T06:15:07;154543.66;;;8.29;85.67
11888;BME280;6003;42.756;23.130;2023-04-12T06:17:35;154514.63;;;8.18;84.69
11888;BME280;6003;42.756;23.130;2023-04-12T06:20:02;154473.69;;;8.02;84.41
11888;BME280;6003;42.756;23.130;2023-04-12T06:22:32;154459.19;;;7.96;85.79
11888;BME280;6003;42.756;23.130;2023-04-12T06:24:59;154492.19;;;8.09;85.57
11888;BME280;6003;42.756;23.130;2023-04-12T06:27:26;154510.63;;;8.16;85.89
11888;BME280;6003;42.756;23.130;2023-04-12T06:29:52;154538.34;;;8.27;85.88
11888;BME280;6003;42.756;23.130;2023-04-12T06:32:19;154592.50;;;8.48;85.31
11888;BME280;6003;42.756;23.130;2023-04-12T06:34:47;154563.41;;;8.36;84.46
11888;BME280;6003;42.756;23.130;2023-04-12T06:37:14;154546.28;;;8.30;84.87
11888;BME280;6003;42.756;23.130;2023-04-12T06:39:41;154540.97;;;8.28;84.38
11888;BME280;6003;42.756;23.130;2023-04-12T06:42:08;154535.75;;;8.26;85.31
11888;BME280;6003;42.756;23.130;2023-04-12T06:44:35;154506.72;;;8.14;84.65
11888;BME280;6003;42.756;23.130;2023-04-12T06:47:01;154508.03;;;8.15;84.35
11888;BME280;6003;42.756;23.130;2023-04-12T06:49:28;154529.13;;;8.23;84.83
11888;BME280;6003;42.756;23.130;2023-04-12T06:51:56;154574.03;;;8.41;83.47
11888;BME280;6003;42.756;23.130;2023-04-12T06:54:23;154702.06;;;8.90;84.76
11888;BME280;6003;42.756;23.130;2023-04-12T06:56:50;154855.22;;;9.49;82.23
11888;BME280;6003;42.756;23.130;2023-04-12T06:59:17;154908.06;;;9.70;80.87
11888;BME280;6003;42.756;23.130;2023-04-12T07:01:43;155008.44;;;10.09;79.17
11888;BME280;6003;42.756;23.130;2023-04-12T07:04:10;154966.13;;;9.92;77.79
11888;BME280;6003;42.756;23.130;2023-04-12T07:06:37;154879.00;;;9.59;79.11
11888;BME280;6003;42.756;23.130;2023-04-12T07:09:05;154756.16;;;9.11;79.33
11888;BME280;6003;42.756;23.130;2023-04-12T07:11:35;154694.13;;;8.87;81.18
11888;BME280;6003;42.756;23.130;2023-04-12T07:14:02;154665.09;;;8.76;82.05
11888;BME280;6003;42.756;23.130;2023-04-12T07:16:29;154673.00;;;8.79;81.26
11888;BME280;6003;42.756;23.130;2023-04-12T07:18:58;154675.63;;;8.80;81.88
11888;BME280;6003;42.756;23.130;2023-04-12T07:21:25;154768.06;;;9.16;80.20
11888;BME280;6003;42.756;23.130;2023-04-12T07:23:51;154868.41;;;9.55;80.57
11888;BME280;6003;42.756;23.130;2023-04-12T07:26:20;154964.81;;;9.92;79.10
11888;BME280;6003;42.756;23.130;2023-04-12T10:26:22;155757.25;;;12.98;47.97
11888;BME280;6003;42.756;23.130;2023-04-12T10:29:21;155762.50;;;13.00;48.22
11888;BME280;6003;42.756;23.130;2023-04-12T10:31:54;155730.75;;;12.88;48.24
11888;BME280;6003;42.756;23.130;2023-04-12T10:34:28;155733.44;;;12.89;48.09
11888;BME280;6003;42.756;23.130;2023-04-12T10:36:56;155717.50;;;12.83;47.69
11888;BME280;6003;42.756;23.130;2023-04-12T10:39:42;155765.19;;;13.01;44.72
11888;BME280;6003;42.756;23.130;2023-04-12T10:42:23;155754.56;;;12.97;43.17
11888;BME280;6003;42.756;23.130;2023-04-12T10:44:52;155778.44;;;13.06;46.31
11888;BME280;6003;42.756;23.130;2023-04-12T10:50:20;155803.59;;;13.16;42.82
11888;BME280;6003;42.756;23.130;2023-04-12T10:56:47;155852.66;;;13.35;37.88
11888;BME280;6003;42.756;23.130;2023-04-12T10:59:19;155851.31;;;13.35;39.61
11888;BME280;6003;42.756;23.130;2023-04-12T11:02:08;155844.69;;;13.32;40.07
11888;BME280;6003;42.756;23.130;2023-04-12T11:05:08;155807.59;;;13.18;39.38
11888;BME280;6003;42.756;23.130;2023-04-12T11:07:45;155728.13;;;12.87;38.73
11888;BME280;6003;42.756;23.130;2023-04-12T11:10:13;155753.25;;;12.97;39.29
11888;BME280;6003;42.756;23.130;2023-04-12T11:12:59;155774.44;;;13.05;39.93
11888;BME280;6003;42.756;23.130;2023-04-12T11:15:54;155790.34;;;13.11;39.82
11888;BME280;6003;42.756;23.130;2023-04-12T11:18:35;155791.66;;;13.12;38.72
11888;BME280;6003;42.756;23.130;2023-04-12T11:21:17;155795.66;;;13.13;39.16
11888;BME280;6003;42.756;23.130;2023-04-12T15:16:13;155414.38;;;11.66;44.71
11888;BME280;6003;42.756;23.130;2023-04-12T15:18:40;155407.78;;;11.63;44.94
11888;BME280;6003;42.756;23.130;2023-04-12T15:21:07;155401.16;;;11.61;45.56
11888;BME280;6003;42.756;23.130;2023-04-12T15:23:35;155386.59;;;11.55;43.88
11888;BME280;6003;42.756;23.130;2023-04-12T15:26:02;155366.75;;;11.47;43.31
11888;BME280;6003;42.756;23.130;2023-04-12T15:28:31;155342.94;;;11.38;44.93
11888;BME280;6003;42.756;23.130;2023-04-12T15:30:58;155357.50;;;11.44;46.74
11888;BME280;6003;42.756;23.130;2023-04-12T15:33:27;155328.38;;;11.33;45.57
11888;BME280;6003;42.756;23.130;2023-04-12T15:35:54;155327.06;;;11.32;45.81
11888;BME280;6003;42.756;23.130;2023-04-12T15:38:22;155333.69;;;11.35;46.18
11888;BME280;6003;42.756;23.130;2023-04-12T15:40:52;155317.84;;;11.28;46.10
11888;BME280;6003;42.756;23.130;2023-04-12T15:43:20;155290.03;;;11.18;46.10
11888;BME280;6003;42.756;23.130;2023-04-12T15:45:47;155280.81;;;11.14;47.13
11888;BME280;6003;42.756;23.130;2023-04-12T15:48:17;155282.13;;;11.15;47.08
11888;BME280;6003;42.756;23.130;2023-04-12T15:50:45;155267.56;;;11.09;46.52
11888;BME280;6003;42.756;23.130;2023-04-12T15:53:13;155253.03;;;11.03;47.18
11888;BME280;6003;42.756;23.130;2023-04-12T15:55:43;155233.16;;;10.96;46.92
11888;BME280;6003;42.756;23.130;2023-04-12T15:58:10;155209.38;;;10.87;46.87
11888;BME280;6003;42.756;23.130;2023-04-12T16:00:36;155204.06;;;10.84;48.38
11888;BME280;6003;42.756;23.130;2023-04-12T16:03:04;155188.22;;;10.78;47.15
11888;BME280;6003;42.756;23.130;2023-04-12T16:05:32;155176.34;;;10.74;47.06
11888;BME280;6003;42.756;23.130;2023-04-12T16:08:00;155156.50;;;10.66;46.92
11888;BME280;6003;42.756;23.130;2023-04-12T16:10:27;155138.03;;;10.59;48.32
11888;BME280;6003;42.756;23.130;2023-04-12T16:12:55;155120.81;;;10.52;48.59
11888;BME280;6003;42.756;23.130;2023-04-12T16:15:21;155114.19;;;10.50;48.17
11888;BME280;6003;42.756;23.130;2023-04-12T16:17:49;155104.94;;;10.46;48.30
11888;BME280;6003;42.756;23.130;2023-04-12T16:20:18;155069.25;;;10.32;48.09
11888;BME280;6003;42.756;23.130;2023-04-12T16:22:46;155064.00;;;10.30;48.90
11888;BME280;6003;42.756;23.130;2023-04-12T16:25:15;155041.50;;;10.22;49.83
11888;BME280;6003;42.756;23.130;2023-04-12T16:27:42;155033.56;;;10.19;48.67
11888;BME280;6003;42.756;23.130;2023-04-12T16:30:10;155032.22;;;10.18;50.94
11888;BME280;6003;42.756;23.130;2023-04-12T16:32:39;154999.19;;;10.05;50.25
11888;BME280;6003;42.756;23.130;2023-04-12T16:35:07;154966.13;;;9.92;50.26
11888;BME280;6003;42.756;23.130;2023-04-12T16:37:35;154954.28;;;9.88;50.30
11888;BME280;6003;42.756;23.130;2023-04-12T16:40:02;154931.81;;;9.79;50.85
11888;BME280;6003;42.756;23.130;2023-04-12T16:42:32;154906.69;;;9.69;51.43
11888;BME280;6003;42.756;23.130;2023-04-12T16:44:59;154886.91;;;9.62;50.90
11888;BME280;6003;42.756;23.130;2023-04-12T16:47:26;154853.88;;;9.49;51.50
11888;BME280;6003;42.756;23.130;2023-04-12T16:49:53;154810.34;;;9.32;50.94
11888;BME280;6003;42.756;23.130;2023-04-12T16:52:20;154810.34;;;9.32;51.99
11888;BME280;6003;42.756;23.130;2023-04-12T16:54:47;154791.81;;;9.25;51.72
11888;BME280;6003;42.756;23.130;2023-04-12T16:57:14;154779.91;;;9.20;52.31
11888;BME280;6003;42.756;23.130;2023-04-12T16:59:43;154749.56;;;9.09;52.80
11888;BME280;6003;42.756;23.130;2023-04-12T17:02:10;154728.44;;;9.00;53.89
11888;BME280;6003;42.756;23.130;2023-04-12T17:04:37;154702.06;;;8.90;54.20
11888;BME280;6003;42.756;23.130;2023-04-12T17:07:03;154687.53;;;8.85;53.37
11888;BME280;6003;42.756;23.130;2023-04-12T17:09:30;154665.09;;;8.76;54.28
11888;BME280;6003;42.756;23.130;2023-04-12T17:11:57;154659.78;;;8.74;53.30
11888;BME280;6003;42.756;23.130;2023-04-12T17:14:27;154640.03;;;8.66;53.73
11888;BME280;6003;42.756;23.130;2023-04-12T17:16:55;154625.50;;;8.61;54.62
11888;BME280;6003;42.756;23.130;2023-04-12T17:19:22;154592.50;;;8.48;55.51
11888;BME280;6003;42.756;23.130;2023-04-12T17:21:49;154589.88;;;8.47;55.34
11888;BME280;6003;42.756;23.130;2023-04-12T17:24:16;154579.28;;;8.43;55.31
11888;BME280;6003;42.756;23.130;2023-04-12T17:26:43;154540.97;;;8.28;57.16
11888;BME280;6003;42.756;23.130;2023-04-12T17:29:10;154535.75;;;8.26;57.17
11888;BME280;6003;42.756;23.130;2023-04-12T17:31:38;154509.34;;;8.16;56.78
11888;BME280;6003;42.756;23.130;2023-04-12T17:34:07;154464.47;;;7.98;58.27
11888;BME280;6003;42.756;23.130;2023-04-12T17:36:34;154488.22;;;8.07;56.23
11888;BME280;6003;42.756;23.130;2023-04-12T17:39:02;154479.00;;;8.04;57.17
11888;BME280;6003;42.756;23.130;2023-04-12T17:41:29;154472.41;;;8.01;57.74
11888;BME280;6003;42.756;23.130;2023-04-12T17:43:57;154438.06;;;7.88;56.92
11888;BME280;6003;42.756;23.130;2023-04-12T17:46:24;154459.19;;;7.96;56.49
11888;BME280;6003;42.756;23.130;2023-04-12T17:48:51;154472.41;;;8.01;56.54
11888;BME280;6003;42.756;23.130;2023-04-12T17:51:20;154459.19;;;7.96;56.48
11888;BME280;6003;42.756;23.130;2023-04-12T17:53:47;154459.19;;;7.96;56.41
11888;BME280;6003;42.756;23.130;2023-04-12T17:56:14;154446.00;;;7.91;56.88
11888;BME280;6003;42.756;23.130;2023-04-12T17:58:42;154440.75;;;7.89;57.11
11888;BME280;6003;42.756;23.130;2023-04-12T18:01:08;154427.53;;;7.84;56.49
11888;BME280;6003;42.756;23.130;2023-04-12T18:03:35;154413.03;;;7.78;56.91
11888;BME280;6003;42.756;23.130;2023-04-12T18:06:02;154410.41;;;7.77;56.20
11888;BME280;6003;42.756;23.130;2023-04-12T18:08:32;154369.50;;;7.61;57.24
11888;BME280;6003;42.756;23.130;2023-04-12T18:11:01;154373.50;;;7.63;55.84
11888;BME280;6003;42.756;23.130;2023-04-12T18:13:30;154369.50;;;7.61;56.49
11888;BME280;6003;42.756;23.130;2023-04-12T18:15:57;154364.22;;;7.59;57.11
11888;BME280;6003;42.756;23.130;2023-04-12T18:18:24;154343.16;;;7.51;57.54
11888;BME280;6003;42.756;23.130;2023-04-12T18:20:51;154336.56;;;7.49;56.71
11888;BME280;6003;42.756;23.130;2023-04-12T18:23:17;154324.69;;;7.44;57.72
11888;BME280;6003;42.756;23.130;2023-04-12T18:25:46;154299.66;;;7.34;58.63
11888;BME280;6003;42.756;23.130;2023-04-12T18:28:12;154274.56;;;7.24;59.19
11888;BME280;6003;42.756;23.130;2023-04-12T18:30:39;154240.34;;;7.11;59.74
11888;BME280;6003;42.756;23.130;2023-04-12T18:33:06;154215.25;;;7.01;60.52
11888;BME280;6003;42.756;23.130;2023-04-12T18:35:33;154191.53;;;6.92;61.07
11888;BME280;6003;42.756;23.130;2023-04-12T18:37:59;154153.34;;;6.77;61.10
11888;BME280;6003;42.756;23.130;2023-04-12T18:40:26;154150.72;;;6.76;60.69
11888;BME280;6003;42.756;23.130;2023-04-12T18:42:54;154145.44;;;6.74;60.96
11888;BME280;6003;42.756;23.130;2023-04-12T18:45:21;154128.31;;;6.68;60.38
11888;BME280;6003;42.756;23.130;2023-04-12T18:47:50;154113.81;;;6.62;61.51
11888;BME280;6003;42.756;23.130;2023-04-12T18:50:17;154100.63;;;6.57;62.33
11888;BME280;6003;42.756;23.130;2023-04-12T18:52:44;154076.94;;;6.48;62.39
11888;BME280;6003;42.756;23.130;2023-04-12T18:55:10;154054.53;;;6.39;63.00
11888;BME280;6003;42.756;23.130;2023-04-12T18:57:37;154034.75;;;6.31;63.29
11888;BME280;6003;42.756;23.130;2023-04-12T19:00:07;154018.97;;;6.25;62.77
11888;BME280;6003;42.756;23.130;2023-04-12T19:02:38;154000.50;;;6.18;63.16
11888;BME280;6003;42.756;23.130;2023-04-12T19:05:05;153987.38;;;6.13;63.64
11888;BME280;6003;42.756;23.130;2023-04-12T19:07:34;153976.78;;;6.09;63.25
11888;BME280;6003;42.756;23.130;2023-04-12T19:10:01;153968.91;;;6.06;63.30
11888;BME280;6003;42.756;23.130;2023-04-12T19:12:28;153945.19;;;5.97;63.73
11888;BME280;6003;42.756;23.130;2023-04-12T19:14:56;153912.22;;;5.84;64.76
11888;BME280;6003;42.756;23.130;2023-04-12T19:17:24;153913.56;;;5.84;64.21
11888;BME280;6003;42.756;23.130;2023-04-12T19:19:52;153914.88;;;5.85;64.25
11888;BME280;6003;42.756;23.130;2023-04-12T19:22:18;153900.38;;;5.79;64.99
11888;BME280;6003;42.756;23.130;2023-04-12T19:24:46;153889.81;;;5.75;65.06
11888;BME280;6003;42.756;23.130;2023-04-12T19:27:14;153864.81;;;5.65;65.35
11888;BME280;6003;42.756;23.130;2023-04-12T19:29:41;153868.81;;;5.67;64.83
11888;BME280;6003;42.756;23.130;2023-04-12T19:32:08;153860.91;;;5.64;64.89
11888;BME280;6003;42.756;23.130;2023-04-12T19:34:38;153874.03;;;5.69;65.03
11888;BME280;6003;42.756;23.130;2023-04-12T19:37:05;153872.72;;;5.69;64.61
11888;BME280;6003;42.756;23.130;2023-04-12T19:39:32;153850.34;;;5.60;65.17
11888;BME280;6003;42.756;23.130;2023-04-12T19:41:59;153839.84;;;5.56;64.93
11888;BME280;6003;42.756;23.130;2023-04-12T19:44:26;153834.56;;;5.54;64.65
11888;BME280;6003;42.756;23.130;2023-04-12T19:46:53;153850.34;;;5.60;64.82
11888;BME280;6003;42.756;23.130;2023-04-12T19:49:20;153849.03;;;5.59;64.16
11888;BME280;6003;42.756;23.130;2023-04-12T19:51:49;153860.91;;;5.64;64.26
11888;BME280;6003;42.756;23.130;2023-04-12T19:54:16;153858.25;;;5.63;64.11
11888;BME280;6003;42.756;23.130;2023-04-12T19:56:47;153863.50;;;5.65;64.44
11888;BME280;6003;42.756;23.130;2023-04-12T19:59:14;153868.81;;;5.67;63.57
11888;BME280;6003;42.756;23.130;2023-04-12T20:01:42;153847.72;;;5.59;64.06